Time;durP1;ratioP1;P1;durP2;ratioP2;P2;SDS_P1;SDS_P2;PMS_P1;PMS_P2;Temp;Humidity;BMP_temperature;BMP_pressure;BME280_temperature;BME280_humidity;BME280_pressure;Samples;Min_cycle;Max_cycle;Signal;HPM_P1;HPM_P2
2022/07/05 00:02:02;;;;;;;0.77;0.50;;;14.60;50.40;;;;;;4991570;28;20214;-43
2022/07/05 00:04:33;;;;;;;1.27;0.50;;;14.70;50.30;;;;;;4990639;28;20217;-43
2022/07/05 00:07:22;;;;;;;0.65;0.60;;;14.70;50.00;;;;;;4972800;28;20198;-44
2022/07/05 00:09:54;;;;;;;2.28;0.40;;;14.70;49.80;;;;;;4972582;28;20209;-44
2022/07/05 00:12:26;;;;;;;0.43;0.40;;;14.70;49.70;;;;;;4972582;28;20218;-45
2022/07/05 00:14:58;;;;;;;0.60;0.40;;;14.70;49.50;;;;;;4983483;28;20213;-44
2022/07/05 00:17:29;;;;;;;0.75;0.50;;;14.70;49.40;;;;;;4991473;28;20204;-44
2022/07/05 00:20:00;;;;;;;0.77;0.50;;;14.80;49.40;;;;;;4985663;28;20197;-43
2022/07/05 00:22:31;;;;;;;0.45;0.40;;;14.80;49.40;;;;;;4991383;28;20225;-44
2022/07/05 00:25:01;;;;;;;1.17;0.40;;;14.80;49.40;;;;;;4981049;28;20561;-44
2022/07/05 00:27:32;;;;;;;0.30;0.30;;;14.90;49.30;;;;;;4972247;28;20206;-44
2022/07/05 00:30:05;;;;;;;0.73;0.50;;;14.90;49.20;;;;;;5010256;28;20201;-44
2022/07/05 00:32:35;;;;;;;0.50;0.50;;;14.90;49.20;;;;;;5011144;28;20221;-45
2022/07/05 00:35:07;;;;;;;0.50;0.50;;;14.90;49.10;;;;;;4991928;28;20229;-45
2022/07/05 00:37:38;;;;;;;0.40;0.40;;;14.90;49.10;;;;;;4985233;28;20196;-45
2022/07/05 00:40:09;;;;;;;0.50;0.45;;;15.00;49.20;;;;;;4990790;28;20689;-45
2022/07/05 00:42:40;;;;;;;0.68;0.47;;;15.00;49.00;;;;;;4991618;28;20260;-44
2022/07/05 00:45:13;;;;;;;0.55;0.50;;;15.00;48.90;;;;;;4990714;28;20208;-44
2022/07/05 00:47:44;;;;;;;0.40;0.40;;;15.00;48.80;;;;;;4990574;28;20202;-45
2022/07/05 00:50:15;;;;;;;0.40;0.40;;;15.10;48.80;;;;;;4991258;28;20704;-45
2022/07/05 00:52:45;;;;;;;0.55;0.40;;;15.10;48.70;;;;;;4991159;28;20697;-44
2022/07/05 00:55:17;;;;;;;1.13;0.47;;;15.10;48.70;;;;;;4990712;28;20240;-44
2022/07/05 00:57:48;;;;;;;0.25;0.25;;;15.10;48.60;;;;;;4990919;28;20228;-44
2022/07/05 01:00:21;;;;;;;1.75;0.55;;;15.10;48.50;;;;;;4991042;28;20556;-44
2022/07/05 01:02:53;;;;;;;0.60;0.40;;;15.10;48.40;;;;;;4991328;28;20221;-45
2022/07/05 01:05:24;;;;;;;0.73;0.35;;;15.10;48.30;;;;;;4994733;28;20430;-45
2022/07/05 01:07:55;;;;;;;0.30;0.30;;;15.20;48.20;;;;;;4994202;28;20213;-45
2022/07/05 01:10:26;;;;;;;0.40;0.40;;;15.20;48.20;;;;;;4994312;28;20205;-44
2022/07/05 01:12:57;;;;;;;0.88;0.40;;;15.20;48.10;;;;;;4993648;28;20206;-45
2022/07/05 01:15:30;;;;;;;0.38;0.38;;;15.20;48.10;;;;;;5014397;28;20228;-46
2022/07/05 01:18:02;;;;;;;0.32;0.30;;;15.20;47.90;;;;;;4997074;28;20202;-46
2022/07/05 01:20:32;;;;;;;0.40;0.30;;;15.20;48.00;;;;;;4994522;28;20205;-46
2022/07/05 01:23:06;;;;;;;0.30;0.30;;;15.20;47.90;;;;;;4994138;28;20197;-45
2022/07/05 01:25:37;;;;;;;0.30;0.30;;;15.30;48.00;;;;;;4993655;28;20691;-45
2022/07/05 01:28:08;;;;;;;0.60;0.40;;;15.30;47.90;;;;;;4995478;28;20201;-45
2022/07/05 01:30:41;;;;;;;0.30;0.30;;;15.30;47.90;;;;;;5012897;28;20737;-44
2022/07/05 01:33:12;;;;;;;0.35;0.20;;;15.30;47.90;;;;;;5004215;28;20272;-45
2022/07/05 01:35:43;;;;;;;0.20;0.20;;;15.30;48.00;;;;;;4994354;28;20225;-45
2022/07/05 01:38:18;;;;;;;0.40;0.40;;;15.30;48.00;;;;;;4994044;28;20662;-46
2022/07/05 01:40:51;;;;;;;0.35;0.35;;;15.30;48.00;;;;;;4994700;28;20193;-45
2022/07/05 01:43:22;;;;;;;0.40;0.40;;;15.30;48.00;;;;;;4993668;28;20205;-44
2022/07/05 01:45:53;;;;;;;0.57;0.38;;;15.40;48.10;;;;;;4993819;28;20209;-44
2022/07/05 01:48:25;;;;;;;0.50;0.40;;;15.40;48.10;;;;;;4977627;28;20201;-45
2022/07/05 01:51:01;;;;;;;0.80;0.50;;;15.40;48.00;;;;;;4993853;28;20560;-45
2022/07/05 01:53:35;;;;;;;0.80;0.55;;;15.40;48.00;;;;;;4993874;28;20197;-44
2022/07/05 01:56:06;;;;;;;0.50;0.50;;;15.40;48.00;;;;;;4993085;28;20209;-44
2022/07/05 01:58:38;;;;;;;1.40;0.50;;;15.40;48.10;;;;;;4998033;28;20193;-44
2022/07/05 02:01:08;;;;;;;0.40;0.40;;;15.50;48.10;;;;;;5013125;28;20227;-45
2022/07/05 02:03:40;;;;;;;0.60;0.50;;;15.50;48.20;;;;;;5012451;28;20193;-46
2022/07/05 02:06:11;;;;;;;1.00;0.47;;;15.50;48.20;;;;;;5013057;28;20197;-45
2022/07/05 02:08:43;;;;;;;0.50;0.50;;;15.50;48.70;;;;;;5012610;28;20189;-45
2022/07/05 02:11:14;;;;;;;0.63;0.43;;;15.50;48.20;;;;;;5001436;28;20217;-45
2022/07/05 02:13:45;;;;;;;3.65;0.43;;;15.50;48.20;;;;;;4992621;28;20560;-45
2022/07/05 02:16:15;;;;;;;0.73;0.40;;;15.50;48.20;;;;;;4993092;28;20204;-46
2022/07/05 02:18:46;;;;;;;0.47;0.47;;;15.50;48.30;;;;;;4993604;28;20197;-45
2022/07/05 02:21:17;;;;;;;0.73;0.50;;;15.50;48.90;;;;;;4993693;28;20217;-45
2022/07/05 02:23:49;;;;;;;1.15;0.50;;;15.50;48.40;;;;;;4992983;28;20212;-45
2022/07/05 02:26:20;;;;;;;1.02;0.68;;;15.60;48.60;;;;;;4993176;28;20198;-45
2022/07/05 02:28:51;;;;;;;0.50;0.50;;;15.60;48.50;;;;;;4992617;28;20529;-45
2022/07/05 02:31:22;;;;;;;0.85;0.40;;;15.60;48.60;;;;;;4993408;28;20228;-45
2022/07/05 02:33:53;;;;;;;1.25;0.60;;;15.60;48.50;;;;;;4992372;28;20189;-44
2022/07/05 02:36:24;;;;;;;0.55;0.40;;;15.60;48.60;;;;;;4992220;28;20209;-45
2022/07/05 02:38:57;;;;;;;1.38;0.70;;;15.60;48.60;;;;;;4992561;28;20189;-45
2022/07/05 02:41:27;;;;;;;0.93;0.50;;;15.60;48.70;;;;;;4993356;28;20229;-46
2022/07/05 02:43:58;;;;;;;1.85;0.60;;;15.60;49.20;;;;;;4993147;28;20194;-44
2022/07/05 02:46:29;;;;;;;0.32;0.32;;;15.70;49.50;;;;;;4992174;28;20202;-44
2022/07/05 02:48:59;;;;;;;0.40;0.40;;;15.70;49.30;;;;;;4992088;28;20196;-45
2022/07/05 02:51:30;;;;;;;0.57;0.57;;;15.70;49.10;;;;;;4993740;28;20213;-45
2022/07/05 02:54:03;;;;;;;0.77;0.70;;;15.70;48.90;;;;;;4993065;28;20193;-45
2022/07/05 02:56:33;;;;;;;0.40;0.40;;;15.70;48.80;;;;;;4993436;28;20232;-45
2022/07/05 02:59:05;;;;;;;0.32;0.32;;;15.70;48.70;;;;;;4993476;28;20198;-45
2022/07/05 03:01:36;;;;;;;0.40;0.40;;;15.70;48.70;;;;;;4992446;28;20221;-45
2022/07/05 03:04:07;;;;;;;0.70;0.50;;;15.70;48.60;;;;;;4993247;28;20194;-46
2022/07/05 03:06:37;;;;;;;1.45;0.50;;;15.80;48.60;;;;;;4992470;28;20198;-45
2022/07/05 03:09:10;;;;;;;0.30;0.30;;;15.80;48.50;;;;;;4993136;28;20199;-46
2022/07/05 03:11:41;;;;;;;0.57;0.45;;;15.80;48.50;;;;;;4993168;28;20224;-45
2022/07/05 03:14:11;;;;;;;0.50;0.50;;;15.80;48.50;;;;;;4988533;28;20212;-45
2022/07/05 03:16:44;;;;;;;1.35;0.30;;;15.80;48.50;;;;;;5006088;28;20201;-45
2022/07/05 03:19:14;;;;;;;0.55;0.40;;;15.80;48.40;;;;;;4992895;28;20557;-44
2022/07/05 03:21:45;;;;;;;0.60;0.32;;;15.80;48.30;;;;;;4992187;28;20232;-45
2022/07/05 03:24:18;;;;;;;0.45;0.35;;;15.80;48.40;;;;;;4991792;28;20321;-45
2022/07/05 03:26:49;;;;;;;0.35;0.30;;;15.80;48.30;;;;;;4991454;28;20201;-45
2022/07/05 03:29:19;;;;;;;1.27;0.50;;;15.80;48.30;;;;;;4991382;28;20190;-45
2022/07/05 03:31:50;;;;;;;0.52;0.50;;;15.80;48.40;;;;;;4992211;28;20225;-45
2022/07/05 03:34:21;;;;;;;0.47;0.40;;;15.80;48.40;;;;;;4991926;28;20862;-45
2022/07/05 03:36:51;;;;;;;0.75;0.43;;;15.80;48.40;;;;;;4991787;28;20197;-44
2022/07/05 03:39:24;;;;;;;0.52;0.50;;;15.80;48.40;;;;;;4991852;28;20189;-45
2022/07/05 03:41:55;;;;;;;0.90;0.60;;;15.80;48.40;;;;;;4992443;28;20229;-45
2022/07/05 03:44:26;;;;;;;0.95;0.65;;;15.80;48.50;;;;;;4991767;28;20201;-46
2022/07/05 03:46:56;;;;;;;0.65;0.50;;;15.80;48.50;;;;;;4991548;28;20208;-45
2022/07/05 03:49:27;;;;;;;0.60;0.50;;;15.80;48.50;;;;;;4991604;28;20561;-46
2022/07/05 03:51:58;;;;;;;0.70;0.43;;;15.90;48.70;;;;;;4992257;28;20217;-45
2022/07/05 03:54:30;;;;;;;0.50;0.50;;;15.90;48.80;;;;;;4991773;28;20217;-46
2022/07/05 03:57:01;;;;;;;0.95;0.60;;;15.90;48.80;;;;;;4995702;28;20212;-46
2022/07/05 03:59:32;;;;;;;0.80;0.70;;;15.90;48.80;;;;;;5011661;28;20192;-46
2022/07/05 04:02:02;;;;;;;5.88;0.80;;;15.90;48.80;;;;;;5011679;28;20722;-46
2022/07/05 04:04:33;;;;;;;1.35;0.68;;;15.90;49.50;;;;;;5000087;28;20197;-45
2022/07/05 04:07:04;;;;;;;1.50;0.70;;;15.90;49.00;;;;;;4992210;28;20201;-47
2022/07/05 04:09:36;;;;;;;2.60;1.00;;;15.90;49.20;;;;;;4991585;28;20205;-46
2022/07/05 04:12:08;;;;;;;1.25;0.77;;;15.90;49.20;;;;;;4991409;28;20220;-46
2022/07/05 04:14:39;;;;;;;3.22;0.80;;;15.90;49.20;;;;;;4991554;28;20218;-47
2022/07/05 04:17:09;;;;;;;1.25;0.70;;;15.90;49.30;;;;;;4992099;28;20208;-47
2022/07/05 04:19:40;;;;;;;1.02;0.85;;;15.90;49.40;;;;;;4992205;28;20581;-47
2022/07/05 04:22:11;;;;;;;1.27;0.70;;;15.90;49.50;;;;;;4992099;28;20581;-45
2022/07/05 04:27:30;;;;;;;0.80;0.70;;;15.90;49.70;;;;;;4991510;28;20675;-46
2022/07/05 04:30:01;;;;;;;2.40;0.82;;;15.90;49.70;;;;;;4991752;28;20205;-45
2022/07/05 04:32:31;;;;;;;2.72;0.80;;;15.90;49.80;;;;;;4991622;28;20222;-45
2022/07/05 04:35:02;;;;;;;1.85;0.70;;;15.90;49.90;;;;;;4991472;28;20584;-45
2022/07/05 04:37:33;;;;;;;1.38;0.80;;;15.90;49.90;;;;;;4994758;28;20201;-45
2022/07/05 04:40:06;;;;;;;1.13;0.93;;;15.90;50.00;;;;;;4995951;28;20205;-45
2022/07/05 04:42:36;;;;;;;1.50;0.77;;;16.00;50.20;;;;;;4995888;28;20244;-45
2022/07/05 04:45:08;;;;;;;1.20;0.80;;;16.00;50.10;;;;;;4995784;28;20535;-44
2022/07/05 04:47:38;;;;;;;1.67;0.80;;;16.00;50.20;;;;;;4995268;28;20208;-45
2022/07/05 04:50:10;;;;;;;1.25;0.70;;;16.00;50.20;;;;;;4995635;28;20201;-45
2022/07/05 04:52:41;;;;;;;0.80;0.80;;;16.00;50.20;;;;;;4995240;28;20308;-46
2022/07/05 04:55:14;;;;;;;1.40;0.90;;;16.00;50.30;;;;;;4994729;28;20611;-44
2022/07/05 04:57:45;;;;;;;0.80;0.80;;;16.00;50.30;;;;;;4995113;28;20205;-45
2022/07/05 05:00:17;;;;;;;0.77;0.70;;;16.00;50.30;;;;;;4995329;28;20202;-46
2022/07/05 05:02:48;;;;;;;0.73;0.70;;;16.00;50.40;;;;;;4995061;28;20217;-45
2022/07/05 05:05:18;;;;;;;0.98;0.80;;;16.00;50.40;;;;;;4995512;28;20205;-45
2022/07/05 05:07:49;;;;;;;1.73;0.90;;;16.00;50.50;;;;;;4995390;28;20197;-45
2022/07/05 05:10:22;;;;;;;1.08;0.90;;;16.00;50.50;;;;;;4994953;28;20208;-44
2022/07/05 05:12:52;;;;;;;1.10;0.82;;;16.00;50.60;;;;;;4994578;28;20221;-46
2022/07/05 05:15:23;;;;;;;0.80;0.80;;;15.90;50.50;;;;;;4994971;28;20232;-46
2022/07/05 05:17:54;;;;;;;2.65;0.90;;;15.90;50.50;;;;;;4994767;28;20205;-46
2022/07/05 05:20:25;;;;;;;0.80;0.80;;;15.90;50.70;;;;;;4994882;28;20649;-45
2022/07/05 05:22:55;;;;;;;0.90;0.75;;;15.90;50.70;;;;;;4995412;28;20214;-45
2022/07/05 05:25:30;;;;;;;1.33;0.98;;;15.90;50.70;;;;;;4995338;28;20201;-46
2022/07/05 05:28:01;;;;;;;1.17;1.08;;;15.90;50.80;;;;;;4994642;28;20556;-45
2022/07/05 05:30:31;;;;;;;0.80;0.80;;;15.90;50.80;;;;;;4994900;28;20198;-46
2022/07/05 05:33:02;;;;;;;1.35;0.93;;;15.90;50.80;;;;;;4994950;28;20222;-45
2022/07/05 05:35:33;;;;;;;1.10;1.00;;;15.90;50.90;;;;;;4994824;28;20588;-46
2022/07/05 05:38:03;;;;;;;2.78;1.30;;;15.90;50.90;;;;;;4994617;28;20202;-47
2022/07/05 05:40:37;;;;;;;1.80;1.40;;;15.90;50.80;;;;;;4994386;28;20202;-47
2022/07/05 05:43:08;;;;;;;1.67;1.20;;;15.90;50.70;;;;;;4989301;28;20280;-47
2022/07/05 05:45:39;;;;;;;3.20;1.60;;;15.90;50.70;;;;;;4994127;28;20210;-46
2022/07/05 05:48:09;;;;;;;3.28;1.00;;;15.90;50.80;;;;;;4980338;28;20202;-47
2022/07/05 05:50:41;;;;;;;2.13;1.30;;;15.90;50.80;;;;;;4974884;28;20403;-46
2022/07/05 05:53:12;;;;;;;1.48;1.20;;;15.90;50.80;;;;;;4974388;28;20233;-45
2022/07/05 05:55:45;;;;;;;1.50;1.20;;;15.90;50.80;;;;;;4978724;28;20689;-46
2022/07/05 05:58:17;;;;;;;1.38;1.25;;;15.90;50.90;;;;;;4974055;28;20202;-45
2022/07/05 06:00:49;;;;;;;1.58;1.20;;;15.90;51.50;;;;;;4988865;28;20197;-46
2022/07/05 06:03:20;;;;;;;1.20;0.95;;;15.90;51.00;;;;;;4993929;28;20285;-45
2022/07/05 06:05:51;;;;;;;1.23;1.05;;;15.90;51.10;;;;;;4994147;28;20204;-45
2022/07/05 06:08:22;;;;;;;1.33;1.23;;;15.90;51.70;;;;;;4993592;28;20201;-48
2022/07/05 06:10:54;;;;;;;1.20;1.10;;;15.80;51.10;;;;;;4993774;28;20205;-45
2022/07/05 06:13:27;;;;;;;2.03;1.45;;;15.80;51.10;;;;;;4993160;28;20197;-45
2022/07/05 06:15:58;;;;;;;1.20;1.10;;;15.80;51.20;;;;;;4992994;28;20360;-45
2022/07/05 06:18:29;;;;;;;1.05;0.95;;;15.80;51.20;;;;;;4993975;28;20204;-47
2022/07/05 06:21:00;;;;;;;1.40;1.13;;;15.80;51.30;;;;;;4993319;28;20202;-45
2022/07/05 06:23:31;;;;;;;1.17;1.08;;;15.80;51.30;;;;;;4993979;28;20198;-45
2022/07/05 06:26:03;;;;;;;1.23;1.13;;;15.80;51.30;;;;;;4992995;28;20197;-45
2022/07/05 06:28:34;;;;;;;1.20;1.05;;;15.80;51.30;;;;;;4993260;28;20202;-45
2022/07/05 06:31:05;;;;;;;1.33;1.23;;;15.80;51.40;;;;;;4992711;28;20391;-45
2022/07/05 06:33:35;;;;;;;1.27;1.05;;;15.80;51.40;;;;;;4992591;28;20201;-45
2022/07/05 06:36:06;;;;;;;1.33;1.23;;;15.80;51.40;;;;;;4990093;28;20232;-45
2022/07/05 06:38:37;;;;;;;1.98;1.27;;;15.80;51.40;;;;;;5012322;28;20197;-45
2022/07/05 06:41:10;;;;;;;1.30;1.10;;;15.80;51.40;;;;;;5012834;28;20197;-45
2022/07/05 06:43:40;;;;;;;1.40;1.30;;;15.70;51.40;;;;;;5012450;28;20223;-45
2022/07/05 06:46:11;;;;;;;1.23;1.00;;;15.70;51.50;;;;;;5010591;28;20204;-45
2022/07/05 06:48:43;;;;;;;1.92;1.00;;;15.70;51.50;;;;;;4992749;28;20205;-45
2022/07/05 06:51:14;;;;;;;1.83;1.13;;;15.70;51.60;;;;;;4991914;28;20276;-45
2022/07/05 06:53:44;;;;;;;1.35;1.10;;;15.70;51.60;;;;;;4992171;28;20220;-46
2022/07/05 06:56:17;;;;;;;1.35;1.15;;;15.70;51.60;;;;;;4992172;28;20228;-45
2022/07/05 06:58:48;;;;;;;0.98;0.93;;;15.70;51.70;;;;;;4997619;28;20761;-45
2022/07/05 07:01:19;;;;;;;1.45;1.17;;;15.70;51.70;;;;;;5012437;28;20219;-45
2022/07/05 07:03:49;;;;;;;1.33;1.00;;;15.70;51.70;;;;;;5012509;28;20197;-44
2022/07/05 07:06:20;;;;;;;1.55;1.10;;;15.70;51.70;;;;;;5011821;28;20201;-45
2022/07/05 07:11:40;;;;;;;1.10;1.00;;;15.70;51.70;;;;;;5012069;28;20684;-45
2022/07/05 07:14:10;;;;;;;1.35;1.20;;;15.70;51.70;;;;;;5008871;28;20662;-44
2022/07/05 07:16:41;;;;;;;2.55;1.15;;;15.70;51.80;;;;;;4989535;28;20232;-45
2022/07/05 07:19:12;;;;;;;1.67;1.17;;;15.70;51.80;;;;;;4984175;28;20201;-45
2022/07/05 07:21:44;;;;;;;2.08;1.27;;;15.70;51.80;;;;;;4993015;28;20220;-45
2022/07/05 07:24:14;;;;;;;2.13;1.02;;;15.60;51.80;;;;;;4992888;28;20206;-46
2022/07/05 07:27:06;;;;;;;2.05;1.30;;;15.60;51.80;;;;;;4992836;28;20202;-46
2022/07/05 07:29:38;;;;;;;3.55;1.10;;;15.60;51.90;;;;;;4991968;28;20186;-45
2022/07/05 07:32:10;;;;;;;1.33;1.20;;;15.60;52.50;;;;;;4991956;28;20214;-45
2022/07/05 07:34:41;;;;;;;1.65;1.20;;;15.60;52.00;;;;;;4992093;28;20252;-47
2022/07/05 07:37:13;;;;;;;2.58;1.30;;;15.60;52.00;;;;;;4992232;28;20236;-46
2022/07/05 07:39:44;;;;;;;1.85;1.10;;;15.60;52.00;;;;;;4992652;28;20339;-45
2022/07/05 07:42:16;;;;;;;2.35;1.35;;;15.60;52.10;;;;;;4992635;28;20240;-46
2022/07/05 07:44:47;;;;;;;3.45;1.52;;;15.50;52.10;;;;;;4992045;28;20201;-45
2022/07/05 07:47:18;;;;;;;1.70;1.20;;;15.50;52.10;;;;;;4991842;28;20201;-45
2022/07/05 07:49:49;;;;;;;2.13;1.20;;;15.60;52.10;;;;;;4992012;28;20193;-45
2022/07/05 07:52:19;;;;;;;2.63;1.17;;;15.60;52.20;;;;;;4992086;28;20793;-45
2022/07/05 07:54:50;;;;;;;2.58;1.40;;;15.60;52.80;;;;;;4992693;28;20224;-45
2022/07/05 07:57:23;;;;;;;3.95;1.50;;;15.60;52.20;;;;;;4992215;28;20229;-45
2022/07/05 07:59:54;;;;;;;3.58;1.38;;;15.50;52.70;;;;;;4991652;28;20190;-45
2022/07/05 08:02:25;;;;;;;3.80;1.45;;;15.60;52.20;;;;;;4991333;28;20225;-45
2022/07/05 08:04:57;;;;;;;1.77;1.30;;;15.50;52.10;;;;;;4991536;28;20202;-45
2022/07/05 08:07:28;;;;;;;2.42;1.48;;;15.50;52.20;;;;;;4990492;28;20256;-46
2022/07/05 08:09:59;;;;;;;3.95;1.45;;;15.50;52.20;;;;;;4981585;28;20661;-45
2022/07/05 08:12:31;;;;;;;3.55;1.60;;;15.60;52.30;;;;;;4991512;28;20623;-45
2022/07/05 08:15:02;;;;;;;2.97;1.60;;;15.50;52.30;;;;;;4991780;28;20206;-46
2022/07/05 08:17:33;;;;;;;2.22;1.20;;;15.50;52.30;;;;;;4991939;28;20256;-44
2022/07/05 08:22:50;;;;;;;3.78;1.67;;;15.50;52.40;;;;;;4991107;28;20220;-45
2022/07/05 08:25:21;;;;;;;2.35;1.30;;;15.50;52.40;;;;;;4991489;28;20220;-45
2022/07/05 08:27:54;;;;;;;2.47;1.50;;;15.50;52.40;;;;;;4991207;28;20224;-45
2022/07/05 08:30:24;;;;;;;2.85;1.60;;;15.50;52.40;;;;;;4990799;28;20212;-46
2022/07/05 08:32:55;;;;;;;2.50;1.33;;;15.40;52.40;;;;;;4991408;28;20704;-45
2022/07/05 08:35:26;;;;;;;2.80;1.40;;;15.40;52.40;;;;;;4991682;28;20202;-46
2022/07/05 08:37:57;;;;;;;2.78;1.30;;;15.40;52.40;;;;;;4991283;28;20228;-45
2022/07/05 08:40:32;;;;;;;2.13;1.20;;;15.40;52.40;;;;;;4991604;28;20202;-45
2022/07/05 08:43:07;;;;;;;2.90;1.60;;;15.40;52.40;;;;;;4991856;28;20225;-45
2022/07/05 08:45:39;;;;;;;3.25;1.35;;;15.40;52.40;;;;;;4990878;28;20201;-45
2022/07/05 08:48:13;;;;;;;5.10;1.63;;;15.40;52.40;;;;;;4991096;28;20563;-45
2022/07/05 08:50:45;;;;;;;1.83;1.30;;;15.40;52.40;;;;;;4991175;28;20288;-45
2022/07/05 08:53:17;;;;;;;1.60;1.23;;;15.40;52.50;;;;;;4991691;28;20218;-45
2022/07/05 08:55:48;;;;;;;3.92;1.50;;;15.40;52.50;;;;;;4991598;28;20198;-44
2022/07/05 08:58:21;;;;;;;2.00;1.23;;;15.40;52.50;;;;;;4991328;28;20189;-44
2022/07/05 09:00:52;;;;;;;4.55;1.77;;;15.40;52.50;;;;;;4991096;28;20247;-46
2022/07/05 09:03:27;;;;;;;3.65;1.50;;;15.40;52.60;;;;;;4991065;28;20233;-45
2022/07/05 09:05:58;;;;;;;2.08;1.23;;;15.40;52.60;;;;;;4991474;28;20645;-45
2022/07/05 09:08:32;;;;;;;2.95;1.60;;;15.40;52.60;;;;;;4991574;28;20197;-44
2022/07/05 09:11:05;;;;;;;4.90;1.48;;;15.30;52.60;;;;;;4991498;28;20256;-44
2022/07/05 09:13:40;;;;;;;2.63;1.30;;;15.30;53.20;;;;;;4991403;28;20205;-45
2022/07/05 09:16:11;;;;;;;2.33;1.42;;;15.30;52.60;;;;;;4991100;28;20221;-45
2022/07/05 09:18:47;;;;;;;2.88;1.50;;;15.30;52.60;;;;;;4991756;28;20573;-44
2022/07/05 09:21:20;;;;;;;3.50;1.42;;;15.40;52.70;;;;;;4990985;28;20201;-44
2022/07/05 09:23:58;;;;;;;2.03;1.40;;;15.30;52.60;;;;;;4992526;28;20204;-45
2022/07/05 09:26:35;;;;;;;1.77;1.35;;;15.30;52.60;;;;;;4995153;28;20201;-45
2022/07/05 09:29:09;;;;;;;3.53;1.90;;;15.30;52.70;;;;;;4995152;28;20201;-44
2022/07/05 09:31:41;;;;;;;4.95;1.50;;;15.30;52.80;;;;;;4994283;28;20214;-44
2022/07/05 09:34:12;;;;;;;2.47;1.30;;;15.30;52.80;;;;;;4994605;28;20193;-44
2022/07/05 09:36:53;;;;;;;2.38;1.52;;;15.30;52.80;;;;;;4994712;28;20232;-44
2022/07/05 09:39:41;;;;;;;2.80;1.23;;;15.40;52.90;;;;;;4995052;28;20662;-44
2022/07/05 09:42:18;;;;;;;3.17;1.60;;;15.30;52.90;;;;;;4994601;28;20275;-44
2022/07/05 09:44:53;;;;;;;2.40;1.42;;;15.30;52.90;;;;;;4989552;28;20197;-44
2022/07/05 09:47:24;;;;;;;2.80;1.20;;;15.30;52.90;;;;;;4994037;28;20357;-44
2022/07/05 09:49:55;;;;;;;2.33;1.13;;;15.30;53.00;;;;;;4987535;28;20194;-44
2022/07/05 09:52:33;;;;;;;1.75;1.20;;;15.30;53.00;;;;;;4974547;28;20218;-44
2022/07/05 09:55:09;;;;;;;2.92;1.45;;;15.30;53.00;;;;;;4989992;28;20556;-44
2022/07/05 09:57:41;;;;;;;3.88;1.40;;;15.30;53.00;;;;;;4994029;28;20595;-45
2022/07/05 10:00:15;;;;;;;2.10;1.20;;;15.30;53.00;;;;;;4992991;28;20244;-44
2022/07/05 10:02:47;;;;;;;2.47;1.20;;;15.30;53.00;;;;;;4982618;28;20236;-44
2022/07/05 10:05:18;;;;;;;3.03;1.30;;;15.30;53.00;;;;;;5007554;28;20271;-44
2022/07/05 10:07:50;;;;;;;3.33;1.58;;;15.30;53.00;;;;;;4983771;28;20214;-44
2022/07/05 10:10:21;;;;;;;1.88;1.38;;;15.30;53.00;;;;;;4991568;28;20197;-43
2022/07/05 10:12:53;;;;;;;3.78;1.40;;;15.30;53.00;;;;;;4993229;28;20592;-44
2022/07/05 10:15:27;;;;;;;3.78;1.48;;;15.30;53.00;;;;;;4993766;28;20219;-44
2022/07/05 10:18:01;;;;;;;2.58;1.10;;;15.30;53.00;;;;;;4992941;28;20241;-43
2022/07/05 10:20:35;;;;;;;1.80;1.30;;;15.30;53.00;;;;;;4993068;28;20575;-44
2022/07/05 10:23:07;;;;;;;1.50;1.10;;;15.30;53.10;;;;;;4992834;28;20275;-44
2022/07/05 10:25:39;;;;;;;1.70;0.98;;;15.30;53.00;;;;;;4976034;28;20676;-45
2022/07/05 10:28:11;;;;;;;2.50;1.30;;;15.30;53.10;;;;;;4974043;28;20673;-44
2022/07/05 10:30:46;;;;;;;2.28;1.13;;;15.30;53.10;;;;;;4993370;28;20193;-44
2022/07/05 10:33:20;;;;;;;2.20;1.30;;;15.20;53.10;;;;;;4992561;28;20686;-44
2022/07/05 10:35:51;;;;;;;1.40;0.98;;;15.20;53.00;;;;;;4992120;28;20287;-46
2022/07/05 10:38:22;;;;;;;2.35;0.85;;;15.20;53.00;;;;;;4988533;28;20234;-44
2022/07/05 10:40:56;;;;;;;1.40;1.17;;;15.20;53.10;;;;;;4973261;28;20199;-44
2022/07/05 10:43:27;;;;;;;1.70;1.23;;;15.20;53.10;;;;;;4973144;28;20226;-44
2022/07/05 10:46:02;;;;;;;2.13;1.02;;;15.20;53.10;;;;;;4973888;28;20229;-46
2022/07/05 10:48:33;;;;;;;3.00;1.30;;;15.20;53.10;;;;;;4993616;28;20291;-44
2022/07/05 10:51:16;;;;;;;1.55;1.05;;;15.20;53.00;;;;;;4992937;28;20660;-47
2022/07/05 10:54:05;;;;;;;3.15;1.17;;;15.20;53.00;;;;;;4993121;28;20201;-46
2022/07/05 10:56:36;;;;;;;1.45;0.93;;;15.20;53.00;;;;;;4992735;28;20284;-44
2022/07/05 10:59:12;;;;;;;2.03;1.08;;;15.20;53.60;;;;;;4992840;28;20193;-45
2022/07/05 11:01:45;;;;;;;2.38;1.00;;;15.20;53.00;;;;;;4992315;28;20218;-44
2022/07/05 11:04:35;;;;;;;1.48;0.88;;;15.20;53.00;;;;;;4991587;28;20190;-45
2022/07/05 11:07:07;;;;;;;1.13;1.00;;;15.20;53.10;;;;;;4984103;28;20895;-46
2022/07/05 11:09:38;;;;;;;1.73;1.05;;;15.20;53.10;;;;;;4992825;28;20672;-45
2022/07/05 11:12:17;;;;;;;2.42;1.10;;;15.20;53.10;;;;;;4992158;28;20618;-45
2022/07/05 11:14:51;;;;;;;1.13;0.82;;;15.20;53.10;;;;;;4992043;28;20197;-44
2022/07/05 11:17:29;;;;;;;1.00;0.90;;;15.20;53.10;;;;;;4992298;28;20224;-44
2022/07/05 11:20:07;;;;;;;1.92;0.90;;;15.10;53.10;;;;;;4983693;28;20185;-45
2022/07/05 11:22:39;;;;;;;1.55;0.98;;;15.20;53.10;;;;;;4992036;28;20209;-44
2022/07/05 11:25:12;;;;;;;1.00;0.70;;;15.20;53.10;;;;;;4992106;28;20194;-44
2022/07/05 11:28:02;;;;;;;1.80;1.10;;;15.20;53.10;;;;;;4991890;28;20202;-44
2022/07/05 11:30:46;;;;;;;1.52;1.02;;;15.20;53.20;;;;;;4991393;28;20201;-45
2022/07/05 11:33:38;;;;;;;2.13;1.10;;;15.20;53.10;;;;;;4992557;28;20667;-45
2022/07/05 11:36:22;;;;;;;1.00;0.90;;;15.20;53.10;;;;;;4991378;28;20227;-45
2022/07/05 11:39:15;;;;;;;1.58;0.70;;;15.20;53.10;;;;;;4983922;28;20217;-44
2022/07/05 11:41:49;;;;;;;3.30;0.90;;;15.20;53.00;;;;;;5011091;28;20221;-45
2022/07/05 11:44:20;;;;;;;1.42;1.00;;;15.20;53.10;;;;;;5011594;28;20204;-45
2022/07/05 11:46:51;;;;;;;0.80;0.70;;;15.20;53.10;;;;;;5003901;28;20571;-46
2022/07/05 11:49:27;;;;;;;1.83;0.77;;;15.10;53.10;;;;;;5051890;22;20243;-48
2022/07/05 11:51:59;;;;;;;0.90;0.70;;;15.10;53.10;;;;;;5057177;28;20222;-46
2022/07/05 11:54:31;;;;;;;1.40;0.80;;;15.10;53.10;;;;;;5070096;28;20538;-47
2022/07/05 11:57:03;;;;;;;1.50;0.90;;;15.10;53.10;;;;;;5069935;28;20215;-46
2022/07/05 11:59:33;;;;;;;1.48;1.08;;;15.10;53.10;;;;;;5068477;28;20573;-48
2022/07/05 12:02:04;;;;;;;2.53;1.20;;;15.10;53.10;;;;;;5069936;28;20219;-46
2022/07/05 12:04:37;;;;;;;2.03;1.00;;;15.10;53.10;;;;;;5070245;28;20203;-46
2022/07/05 12:07:11;;;;;;;1.45;0.95;;;15.10;53.10;;;;;;5070225;28;20202;-48
2022/07/05 12:12:47;;;;;;;4.18;1.55;;;15.10;53.20;;;;;;5030314;28;20572;-47
2022/07/05 12:15:19;;;;;;;3.50;1.60;;;15.20;53.20;;;;;;5049757;28;20678;-47
2022/07/05 12:17:51;;;;;;;2.63;1.60;;;15.10;53.10;;;;;;5065490;28;20313;-50
2022/07/05 12:20:27;;;;;;;4.03;1.40;;;15.20;53.20;;;;;;5069969;28;20619;-45
2022/07/05 12:22:58;;;;;;;5.72;1.83;;;15.10;53.10;;;;;;5070028;28;20236;-50
2022/07/05 12:25:30;;;;;;;2.20;1.33;;;15.20;53.10;;;;;;5069870;28;20191;-45
2022/07/05 12:28:01;;;;;;;3.65;1.60;;;15.20;53.10;;;;;;5069100;28;20670;-44
2022/07/05 12:30:33;;;;;;;5.05;1.60;;;15.10;53.10;;;;;;5069009;28;20205;-49
2022/07/05 12:33:05;;;;;;;2.45;1.30;;;15.10;53.10;;;;;;5069990;28;20222;-47
2022/07/05 12:35:43;;;;;;;4.47;1.85;;;15.10;53.10;;;;;;5070060;28;20672;-44
2022/07/05 12:38:16;;;;;;;2.50;1.70;;;15.10;53.10;;;;;;5069770;28;20226;-48
2022/07/05 12:40:48;;;;;;;4.03;1.65;;;15.10;53.10;;;;;;5070243;28;20217;-47
2022/07/05 12:43:20;;;;;;;4.95;2.10;;;15.10;53.10;;;;;;5069343;28;20214;-46
2022/07/05 12:46:03;;;;;;;4.35;1.70;;;15.10;53.10;;;;;;5069517;28;20198;-46
2022/07/05 12:48:38;;;;;;;4.25;1.60;;;15.10;53.10;;;;;;5089805;22;20233;-44
2022/07/05 12:51:12;;;;;;;4.13;1.67;;;15.10;53.10;;;;;;5089127;28;20197;-44
2022/07/05 12:59:22;;;;;;;3.78;1.90;;;15.00;53.10;;;;;;5072693;28;20205;-44
2022/07/05 13:01:53;;;;;;;3.17;2.08;;;15.10;53.10;;;;;;5073026;28;20210;-44
2022/07/05 13:04:23;;;;;;;5.50;1.65;;;15.10;53.10;;;;;;5073023;28;20194;-44
2022/07/05 13:06:58;;;;;;;4.40;1.70;;;15.00;53.00;;;;;;5073551;28;20198;-44
2022/07/05 13:09:36;;;;;;;3.00;1.90;;;15.00;53.10;;;;;;5072873;28;20276;-45
2022/07/05 13:12:14;;;;;;;3.13;1.83;;;15.00;53.10;;;;;;5072924;28;20215;-44
2022/07/05 13:14:46;;;;;;;4.07;1.88;;;15.00;53.10;;;;;;5072758;28;20202;-43
2022/07/05 13:17:18;;;;;;;4.90;1.70;;;15.00;53.10;;;;;;5073013;28;20203;-45
2022/07/05 13:19:49;;;;;;;5.13;1.80;;;15.00;53.10;;;;;;5073329;28;20234;-43
2022/07/05 13:22:22;;;;;;;5.53;1.80;;;15.00;53.20;;;;;;5073317;28;20694;-45
2022/07/05 13:24:54;;;;;;;2.97;1.80;;;15.00;53.20;;;;;;5073351;28;20199;-45
2022/07/05 13:27:24;;;;;;;4.72;1.95;;;14.90;53.10;;;;;;5073505;28;20256;-46
2022/07/05 13:29:55;;;;;;;5.28;1.92;;;15.00;53.20;;;;;;5072491;28;20213;-44
2022/07/05 13:32:26;;;;;;;3.47;1.95;;;14.90;53.10;;;;;;5072719;28;20215;-43